Time;durP1;ratioP1;P1;durP2;ratioP2;P2;SDS_P1;SDS_P2;PMS_P1;PMS_P2;Temp;Humidity;BMP_temperature;BMP_pressure;BME280_temperature;BME280_humidity;BME280_pressure;Samples;Min_cycle;Max_cycle;Signal;HPM_P1;HPM_P2
2023/06/26 12:17:18;;;;;;;1.33;0.80;;;25.70;87.00;;;;;;4953910;29;20520;-73
2023/06/26 12:19:47;;;;;;;2.92;1.10;;;25.80;87.10;;;;;;4956031;28;20204;-74
2023/06/26 12:22:14;;;;;;;2.20;0.65;;;26.00;87.50;;;;;;4951370;28;20618;-74
2023/06/26 12:24:42;;;;;;;1.90;0.60;;;26.00;88.50;;;;;;4953940;28;20228;-73
2023/06/26 12:27:11;;;;;;;0.95;0.60;;;25.90;87.40;;;;;;4954546;28;20263;-72
2023/06/26 12:29:40;;;;;;;1.30;0.70;;;25.90;87.00;;;;;;4954114;28;20216;-74
2023/06/26 12:32:10;;;;;;;1.55;0.85;;;26.00;88.80;;;;;;4954849;28;20321;-73
2023/06/26 12:34:39;;;;;;;1.52;0.60;;;26.10;85.70;;;;;;4955695;28;20211;-74
2023/06/26 12:37:09;;;;;;;1.10;0.55;;;26.10;87.80;;;;;;4955733;28;20207;-73
2023/06/26 12:39:49;;;;;;;1.58;0.82;;;26.10;86.70;;;;;;4955969;28;20216;-74
2023/06/26 12:42:17;;;;;;;2.25;0.60;;;26.10;87.80;;;;;;4955912;28;20240;-74
2023/06/26 12:44:44;;;;;;;2.53;0.70;;;26.10;87.10;;;;;;4955652;28;20235;-74
2023/06/26 12:47:13;;;;;;;0.98;0.60;;;25.80;85.50;;;;;;4955651;28;20204;-73
2023/06/26 12:49:43;;;;;;;1.40;0.63;;;25.80;85.60;;;;;;4956060;28;20230;-74
2023/06/26 12:52:11;;;;;;;2.25;0.80;;;25.80;84.10;;;;;;4955801;28;20236;-74
2023/06/26 12:54:40;;;;;;;1.48;0.55;;;25.90;84.10;;;;;;4955594;28;20212;-74
2023/06/26 12:57:07;;;;;;;1.23;0.55;;;25.80;84.50;;;;;;4955483;28;20667;-74
2023/06/26 12:59:35;;;;;;;1.73;0.57;;;25.80;84.50;;;;;;4955399;28;20231;-73
2023/06/26 13:02:03;;;;;;;2.72;0.60;;;25.80;86.10;;;;;;4954974;28;20231;-73
2023/06/26 13:04:30;;;;;;;1.73;0.80;;;25.80;87.30;;;;;;4955065;28;20222;-73
2023/06/26 13:06:58;;;;;;;2.58;0.90;;;25.80;87.50;;;;;;4955088;28;20643;-73
2023/06/26 13:09:26;;;;;;;3.70;0.82;;;25.60;88.60;;;;;;4955420;28;20323;-73
2023/06/26 13:11:53;;;;;;;3.00;0.70;;;25.50;89.50;;;;;;4955247;28;20230;-73
2023/06/26 13:14:20;;;;;;;3.78;0.90;;;25.50;88.20;;;;;;4955104;28;20659;-73
2023/06/26 13:16:48;;;;;;;2.30;0.75;;;25.60;86.80;;;;;;4954867;28;20222;-72
2023/06/26 13:19:15;;;;;;;1.83;0.68;;;25.60;87.20;;;;;;4955115;28;20235;-72
2023/06/26 13:21:41;;;;;;;3.38;0.70;;;25.60;90.30;;;;;;4954997;28;20228;-73
2023/06/26 13:24:10;;;;;;;1.13;0.80;;;25.50;90.20;;;;;;4954844;28;20663;-73
2023/06/26 13:26:37;;;;;;;1.73;0.70;;;25.50;88.80;;;;;;4954629;28;20757;-73
2023/06/26 13:29:04;;;;;;;1.58;0.73;;;25.50;89.20;;;;;;4955002;28;20208;-73
2023/06/26 13:31:30;;;;;;;1.80;0.90;;;25.50;89.90;;;;;;4954635;28;20283;-72
2023/06/26 13:33:59;;;;;;;1.77;0.90;;;25.70;90.30;;;;;;4954696;28;20663;-72
2023/06/26 13:36:26;;;;;;;2.92;0.93;;;25.80;89.10;;;;;;4954726;28;20659;-73
2023/06/26 13:38:55;;;;;;;2.92;0.93;;;25.70;89.60;;;;;;4954495;28;20212;-73
2023/06/26 13:41:23;;;;;;;1.23;0.80;;;25.80;91.20;;;;;;4958430;28;20254;-73
2023/06/26 13:43:50;;;;;;;2.80;1.10;;;26.00;90.50;;;;;;4958597;28;20207;-73
2023/06/26 13:46:18;;;;;;;2.92;0.90;;;26.00;90.50;;;;;;4958382;28;20235;-74
2023/06/26 13:48:44;;;;;;;1.20;0.70;;;25.90;90.00;;;;;;4958842;28;20203;-73
2023/06/26 13:51:11;;;;;;;5.68;1.10;;;25.80;88.90;;;;;;4958789;28;20208;-73
2023/06/26 13:53:38;;;;;;;2.58;0.90;;;25.60;91.50;;;;;;4958582;28;20210;-73
2023/06/26 13:56:05;;;;;;;2.10;0.77;;;25.70;90.20;;;;;;4958532;28;20230;-73
2023/06/26 13:58:36;;;;;;;2.67;0.60;;;25.70;91.40;;;;;;4957908;28;20703;-74
2023/06/26 14:01:04;;;;;;;2.22;0.80;;;25.80;90.90;;;;;;4954741;28;20308;-74
2023/06/26 14:03:30;;;;;;;2.28;0.77;;;25.70;88.90;;;;;;4957214;28;20212;-76
2023/06/26 14:05:57;;;;;;;2.58;1.20;;;25.60;90.10;;;;;;4957331;28;20228;-77
2023/06/26 14:08:24;;;;;;;1.30;0.70;;;25.40;90.80;;;;;;4957183;28;20295;-74
2023/06/26 14:10:51;;;;;;;1.75;0.60;;;25.30;90.10;;;;;;4957047;28;20207;-74
2023/06/26 14:13:18;;;;;;;2.05;0.77;;;25.30;90.00;;;;;;4957159;28;20234;-77
2023/06/26 14:15:46;;;;;;;1.50;0.60;;;25.30;89.40;;;;;;4957160;28;20219;-75
2023/06/26 14:18:13;;;;;;;2.67;0.63;;;25.40;90.30;;;;;;4956853;28;20298;-76
2023/06/26 14:20:41;;;;;;;1.95;0.60;;;25.50;86.30;;;;;;4956709;28;20693;-74
2023/06/26 14:23:08;;;;;;;1.15;0.70;;;25.60;85.80;;;;;;4956848;28;20227;-75
2023/06/26 14:25:35;;;;;;;2.35;0.77;;;25.50;86.00;;;;;;4956720;28;20322;-73
2023/06/26 14:28:02;;;;;;;2.78;0.70;;;25.50;86.00;;;;;;4956658;28;20208;-75
2023/06/26 14:30:29;;;;;;;1.95;0.75;;;25.50;87.60;;;;;;4956313;28;20662;-75
2023/06/26 14:32:57;;;;;;;2.78;0.70;;;25.50;88.70;;;;;;4956710;28;20263;-74
2023/06/26 14:35:24;;;;;;;1.23;0.73;;;25.30;86.10;;;;;;4954700;28;20243;-74
2023/06/26 14:37:51;;;;;;;3.22;0.70;;;25.40;87.80;;;;;;4955678;28;20221;-75
2023/06/26 14:40:18;;;;;;;5.30;0.77;;;25.50;89.50;;;;;;4956626;28;20240;-75
2023/06/26 14:42:45;;;;;;;1.25;0.65;;;25.60;88.70;;;;;;4956555;28;20234;-74
2023/06/26 14:45:12;;;;;;;5.38;0.80;;;25.70;87.90;;;;;;4957799;28;20208;-73
2023/06/26 14:47:39;;;;;;;1.75;0.68;;;25.60;87.50;;;;;;4957748;28;20212;-74
2023/06/26 14:50:09;;;;;;;2.00;0.73;;;25.60;88.30;;;;;;4957901;28;20208;-74
2023/06/26 14:52:36;;;;;;;1.20;0.60;;;25.70;87.60;;;;;;4956827;28;20235;-74
2023/06/26 14:55:03;;;;;;;0.80;0.52;;;25.80;86.50;;;;;;4957562;28;20578;-74
2023/06/26 14:57:30;;;;;;;0.85;0.40;;;25.90;88.20;;;;;;4957781;28;20227;-74
2023/06/26 14:59:57;;;;;;;1.52;0.60;;;26.00;86.10;;;;;;4957692;28;20208;-73
2023/06/26 15:02:23;;;;;;;2.05;0.60;;;26.00;87.00;;;;;;4957455;28;20232;-73
2023/06/26 15:04:50;;;;;;;1.73;0.68;;;25.80;84.80;;;;;;4957590;28;20299;-74
2023/06/26 15:07:18;;;;;;;2.97;0.80;;;25.80;87.50;;;;;;4957198;28;20236;-73
2023/06/26 15:09:45;;;;;;;1.58;0.50;;;25.70;87.00;;;;;;4957584;28;20291;-74
2023/06/26 15:12:13;;;;;;;2.90;0.73;;;25.70;86.10;;;;;;4957327;28;20228;-73
2023/06/26 15:14:40;;;;;;;2.10;0.82;;;25.50;86.30;;;;;;4957303;28;20212;-73
2023/06/26 15:17:07;;;;;;;3.15;0.50;;;25.50;86.70;;;;;;4957147;28;20219;-73
2023/06/26 15:19:34;;;;;;;1.83;0.80;;;25.40;87.10;;;;;;4957345;28;20665;-73
2023/06/26 15:22:01;;;;;;;2.85;0.90;;;25.20;86.40;;;;;;4956974;28;20238;-73
2023/06/26 15:24:29;;;;;;;1.60;0.55;;;25.40;87.40;;;;;;4957306;28;20208;-73
2023/06/26 15:26:56;;;;;;;7.55;0.70;;;25.40;87.80;;;;;;4957125;28;20669;-73
2023/06/26 15:29:23;;;;;;;1.55;0.70;;;25.30;88.20;;;;;;4957231;28;20706;-74
2023/06/26 15:31:50;;;;;;;2.65;0.80;;;25.10;88.60;;;;;;4956716;28;20228;-73
2023/06/26 15:34:17;;;;;;;2.03;0.82;;;24.90;89.50;;;;;;4956716;28;20208;-73
2023/06/26 15:36:44;;;;;;;2.15;0.88;;;24.90;90.20;;;;;;4956639;28;20566;-73
2023/06/26 15:39:11;;;;;;;3.58;0.77;;;24.80;90.10;;;;;;4956795;28;20212;-73
2023/06/26 15:41:40;;;;;;;1.30;0.70;;;24.80;90.30;;;;;;4956749;28;20733;-73
2023/06/26 15:44:06;;;;;;;3.58;0.90;;;24.70;90.50;;;;;;4956655;28;20211;-73
2023/06/26 15:46:33;;;;;;;5.25;1.30;;;24.60;89.90;;;;;;4956495;28;20231;-73
2023/06/26 15:49:00;;;;;;;1.92;0.77;;;24.50;90.40;;;;;;4956552;28;20208;-73
2023/06/26 15:51:27;;;;;;;2.92;0.70;;;24.50;90.60;;;;;;4956237;28;20234;-73
2023/06/26 15:53:53;;;;;;;2.38;0.60;;;24.60;90.30;;;;;;4956750;28;20208;-73
2023/06/26 15:56:20;;;;;;;2.35;0.80;;;24.80;91.80;;;;;;4956390;28;20214;-73
2023/06/26 15:58:48;;;;;;;1.60;0.70;;;24.90;91.00;;;;;;4956517;28;20214;-73
2023/06/26 16:01:16;;;;;;;3.17;1.10;;;25.00;90.90;;;;;;4956149;28;20302;-73
2023/06/26 16:03:43;;;;;;;1.48;0.82;;;25.10;89.60;;;;;;4955195;28;20241;-73
2023/06/26 16:06:10;;;;;;;1.60;1.00;;;25.10;88.00;;;;;;4956211;28;20240;-73
2023/06/26 16:08:37;;;;;;;1.73;0.85;;;24.90;89.20;;;;;;4956315;28;20214;-73
2023/06/26 16:11:05;;;;;;;1.23;0.75;;;25.00;90.40;;;;;;4956142;28;20214;-73
2023/06/26 16:13:31;;;;;;;2.30;0.85;;;25.00;89.70;;;;;;4955941;28;20208;-73
2023/06/26 16:16:00;;;;;;;3.97;1.05;;;25.00;89.70;;;;;;4955915;28;20234;-73
2023/06/26 16:18:27;;;;;;;2.50;0.63;;;25.10;89.40;;;;;;4955901;28;20251;-73
2023/06/26 16:20:54;;;;;;;2.88;0.90;;;25.10;90.40;;;;;;4955913;28;20222;-73
2023/06/26 16:23:21;;;;;;;3.63;1.00;;;25.10;89.30;;;;;;4955835;28;20732;-73
2023/06/26 16:25:48;;;;;;;1.77;0.60;;;25.00;89.40;;;;;;4953070;28;20758;-73
2023/06/26 16:28:15;;;;;;;1.58;0.63;;;24.90;87.20;;;;;;4961299;28;20210;-74
2023/06/26 16:30:42;;;;;;;1.50;0.73;;;24.70;89.50;;;;;;4955280;28;20262;-74
2023/06/26 16:33:10;;;;;;;1.73;0.80;;;24.70;88.30;;;;;;4955376;28;20752;-74
2023/06/26 16:35:37;;;;;;;2.72;0.50;;;24.60;89.10;;;;;;4955224;28;20208;-74
2023/06/26 16:38:06;;;;;;;1.13;0.55;;;24.50;88.90;;;;;;4955468;28;20218;-72
2023/06/26 16:40:33;;;;;;;2.70;0.90;;;24.50;88.50;;;;;;4955138;28;20573;-75
2023/06/26 16:42:59;;;;;;;1.55;0.70;;;24.40;86.40;;;;;;4955165;28;20595;-75
2023/06/26 16:45:26;;;;;;;1.27;0.60;;;24.40;87.30;;;;;;4955160;28;20210;-72
2023/06/26 16:47:53;;;;;;;1.80;1.00;;;24.30;87.60;;;;;;4954864;28;20829;-73
2023/06/26 16:50:21;;;;;;;6.95;1.13;;;24.20;87.30;;;;;;4955177;28;20214;-76
2023/06/26 16:52:48;;;;;;;1.35;0.70;;;24.20;87.50;;;;;;4954903;28;20224;-74
2023/06/26 16:55:15;;;;;;;1.38;0.52;;;24.10;89.90;;;;;;4954879;28;20212;-76
2023/06/26 16:57:43;;;;;;;2.78;0.70;;;24.00;90.30;;;;;;4954222;28;20215;-80
2023/06/26 17:00:11;;;;;;;1.05;0.60;;;23.90;90.20;;;;;;4954640;28;20690;-76
2023/06/26 17:02:38;;;;;;;2.95;0.82;;;23.90;90.70;;;;;;4954652;28;20230;-73
2023/06/26 17:05:05;;;;;;;1.00;0.50;;;23.80;90.80;;;;;;4954808;28;20204;-73
2023/06/26 17:07:34;;;;;;;2.05;0.50;;;23.80;90.80;;;;;;4954543;28;20242;-74
2023/06/26 17:10:01;;;;;;;4.72;0.85;;;23.80;91.60;;;;;;4954460;28;20255;-72
2023/06/26 17:12:28;;;;;;;2.17;0.65;;;23.80;90.50;;;;;;4954385;28;20224;-73
2023/06/26 17:14:55;;;;;;;2.42;0.80;;;23.80;90.90;;;;;;4954294;28;20212;-73
2023/06/26 17:17:22;;;;;;;1.70;0.68;;;23.80;91.10;;;;;;4954317;28;20299;-71
2023/06/26 17:19:49;;;;;;;0.95;0.60;;;23.70;91.20;;;;;;4954763;28;20216;-73
2023/06/26 17:22:15;;;;;;;1.30;0.65;;;23.70;92.20;;;;;;4954314;28;20224;-73
2023/06/26 17:24:44;;;;;;;1.40;0.75;;;23.50;91.80;;;;;;4954159;28;20298;-73
2023/06/26 17:27:14;;;;;;;1.60;0.60;;;23.50;92.50;;;;;;4954374;28;20786;-73
2023/06/26 17:29:41;;;;;;;1.58;0.60;;;23.40;92.20;;;;;;4954360;28;20208;-73
2023/06/26 17:32:09;;;;;;;1.60;0.80;;;23.30;92.00;;;;;;4954173;28;20561;-73
2023/06/26 17:34:36;;;;;;;3.67;0.85;;;23.30;92.20;;;;;;4954529;28;20211;-73
2023/06/26 17:37:04;;;;;;;2.85;0.63;;;23.30;92.60;;;;;;4954504;28;20211;-72
2023/06/26 17:39:30;;;;;;;1.23;0.70;;;23.20;93.00;;;;;;4954265;28;20560;-72
2023/06/26 17:42:01;;;;;;;1.13;0.60;;;23.20;92.90;;;;;;4954433;28;20231;-72
2023/06/26 17:44:28;;;;;;;1.02;0.60;;;23.20;93.30;;;;;;4954720;28;20314;-73
2023/06/26 17:46:55;;;;;;;1.35;0.73;;;23.10;93.20;;;;;;4954143;28;20619;-73
2023/06/26 17:49:22;;;;;;;2.15;0.60;;;23.00;93.00;;;;;;4954306;28;20730;-73
2023/06/26 17:51:49;;;;;;;1.92;0.60;;;22.90;93.20;;;;;;4953945;28;20224;-72
2023/06/26 17:54:16;;;;;;;2.30;0.68;;;22.80;93.30;;;;;;4954447;28;20255;-72
2023/06/26 17:56:45;;;;;;;1.10;0.60;;;22.80;93.80;;;;;;4954220;28;20258;-73
2023/06/26 17:59:14;;;;;;;2.97;0.75;;;22.50;94.00;;;;;;4954121;28;20682;-72
2023/06/26 18:01:41;;;;;;;2.75;0.70;;;22.50;93.90;;;;;;4954104;28;20733;-73
2023/06/26 18:04:08;;;;;;;2.70;0.70;;;22.50;93.70;;;;;;4954403;28;20215;-73
2023/06/26 18:06:35;;;;;;;1.35;0.70;;;22.40;93.70;;;;;;4954159;28;20239;-72
2023/06/26 18:09:03;;;;;;;2.50;0.80;;;22.40;94.00;;;;;;4954601;28;20243;-72
2023/06/26 18:11:30;;;;;;;3.08;0.55;;;22.40;94.40;;;;;;4954698;28;20703;-73
2023/06/26 18:13:58;;;;;;;1.55;0.60;;;22.30;93.90;;;;;;4954294;28;20263;-73
2023/06/26 18:16:27;;;;;;;3.38;0.57;;;22.20;93.80;;;;;;4954285;28;20220;-72
2023/06/26 18:18:54;;;;;;;3.35;1.30;;;22.10;94.00;;;;;;4953885;28;20212;-73
2023/06/26 18:21:21;;;;;;;1.38;0.50;;;22.10;94.00;;;;;;4954006;28;20239;-73
2023/06/26 18:23:48;;;;;;;4.05;0.50;;;22.10;94.70;;;;;;4954314;28;20210;-73
2023/06/26 18:26:15;;;;;;;1.42;0.50;;;22.00;94.00;;;;;;4954242;28;20208;-73
2023/06/26 18:28:42;;;;;;;1.90;0.50;;;22.00;95.10;;;;;;4957703;28;20216;-72
2023/06/26 18:31:09;;;;;;;0.70;0.52;;;22.00;94.70;;;;;;4957563;28;20218;-74
2023/06/26 18:33:37;;;;;;;0.82;0.55;;;22.10;95.50;;;;;;4957590;28;20240;-73
2023/06/26 18:36:06;;;;;;;1.45;0.70;;;22.00;94.40;;;;;;4958012;28;20570;-73
2023/06/26 18:38:33;;;;;;;1.48;0.60;;;22.00;94.70;;;;;;4957458;28;20219;-73
2023/06/26 18:41:00;;;;;;;1.08;0.50;;;21.90;94.90;;;;;;4957305;28;20210;-73
2023/06/26 18:43:27;;;;;;;3.15;1.33;;;22.00;94.70;;;;;;4957127;28;20214;-74
2023/06/26 18:45:54;;;;;;;3.38;0.63;;;22.00;94.60;;;;;;4957162;28;20679;-73
2023/06/26 18:48:21;;;;;;;2.65;0.73;;;21.90;94.70;;;;;;4957176;28;20271;-73
2023/06/26 18:50:49;;;;;;;1.85;0.80;;;21.90;95.40;;;;;;4957603;28;20291;-72
2023/06/26 18:53:16;;;;;;;2.70;0.82;;;21.80;95.00;;;;;;4957180;28;20287;-72
2023/06/26 18:55:43;;;;;;;1.00;0.57;;;21.80;95.20;;;;;;4957443;28;20210;-73
2023/06/26 18:58:10;;;;;;;1.80;0.60;;;21.70;95.20;;;;;;4957163;28;20214;-73
2023/06/26 19:00:37;;;;;;;3.17;0.85;;;21.70;95.30;;;;;;4957065;28;20659;-72
2023/06/26 19:03:04;;;;;;;1.77;0.60;;;21.70;94.60;;;;;;4957201;28;20232;-72
2023/06/26 19:05:31;;;;;;;1.00;0.50;;;21.70;94.50;;;;;;4956805;28;20255;-72
2023/06/26 19:07:59;;;;;;;2.65;0.60;;;21.70;94.70;;;;;;4957194;28;20590;-72
2023/06/26 19:10:26;;;;;;;1.90;0.60;;;21.80;94.40;;;;;;4957150;28;20216;-72
2023/06/26 19:12:53;;;;;;;0.93;0.70;;;21.80;94.80;;;;;;4956855;28;20224;-72
2023/06/26 19:15:20;;;;;;;1.48;0.50;;;21.70;94.10;;;;;;4956990;28;20675;-72
2023/06/26 19:17:47;;;;;;;3.13;0.70;;;21.70;94.20;;;;;;4956322;28;20208;-72
2023/06/26 19:20:14;;;;;;;0.88;0.50;;;21.60;94.10;;;;;;4956731;28;20208;-72
2023/06/26 19:22:41;;;;;;;1.40;0.70;;;21.70;94.50;;;;;;4956265;28;20698;-73
2023/06/26 19:25:10;;;;;;;2.65;0.93;;;21.60;94.70;;;;;;4956474;28;20574;-73
2023/06/26 19:27:40;;;;;;;2.80;1.05;;;21.60;94.70;;;;;;4956321;28;20318;-72
2023/06/26 19:30:08;;;;;;;3.97;0.93;;;21.60;95.00;;;;;;4956491;28;20218;-73
2023/06/26 19:32:35;;;;;;;2.63;0.60;;;21.50;94.50;;;;;;4956610;28;20224;-72
2023/06/26 19:35:02;;;;;;;1.88;0.70;;;21.50;94.20;;;;;;4956549;28;20663;-73
2023/06/26 19:37:29;;;;;;;2.58;0.68;;;21.50;93.60;;;;;;4956408;28;20222;-73
2023/06/26 19:39:56;;;;;;;2.33;0.50;;;21.60;94.10;;;;;;4956500;28;20208;-73
2023/06/26 19:42:24;;;;;;;1.30;0.60;;;21.60;94.30;;;;;;4956170;28;20694;-73
2023/06/26 19:44:51;;;;;;;1.27;0.60;;;21.50;94.10;;;;;;4956336;28;20204;-73
2023/06/26 19:47:18;;;;;;;0.82;0.45;;;21.40;94.10;;;;;;4955874;28;20279;-72
2023/06/26 19:49:45;;;;;;;2.05;0.60;;;21.50;94.10;;;;;;4956194;28;20218;-72
2023/06/26 19:52:12;;;;;;;1.05;0.57;;;21.50;93.40;;;;;;4956080;28;20228;-72
2023/06/26 19:54:39;;;;;;;1.30;0.60;;;21.50;93.80;;;;;;4956252;28;20238;-72
2023/06/26 19:57:10;;;;;;;3.25;0.70;;;21.40;93.90;;;;;;4956311;28;20222;-73
2023/06/26 19:59:38;;;;;;;1.33;0.55;;;21.30;94.30;;;;;;4956138;28;20219;-72
2023/06/26 20:02:06;;;;;;;1.90;0.70;;;21.30;94.20;;;;;;4955987;28;20232;-72
2023/06/26 20:04:33;;;;;;;1.75;0.63;;;21.20;94.30;;;;;;4956193;28;20212;-72
2023/06/26 20:07:01;;;;;;;2.78;0.60;;;21.30;94.60;;;;;;4955814;28;20240;-73
2023/06/26 20:09:30;;;;;;;1.42;0.60;;;21.30;94.30;;;;;;4955863;28;20243;-73
2023/06/26 20:11:58;;;;;;;3.38;0.63;;;21.30;94.60;;;;;;4955891;28;20224;-72
2023/06/26 20:14:24;;;;;;;3.38;0.68;;;21.30;94.80;;;;;;4955574;28;20212;-72
2023/06/26 20:16:53;;;;;;;1.20;0.63;;;21.30;94.80;;;;;;4955224;28;20302;-72
2023/06/26 20:19:19;;;;;;;1.75;0.60;;;21.20;95.60;;;;;;4955456;28;20208;-72
2023/06/26 20:21:46;;;;;;;2.53;0.93;;;21.10;94.90;;;;;;4955063;28;20754;-72
2023/06/26 20:24:13;;;;;;;2.05;0.80;;;21.10;95.60;;;;;;4955470;28;20215;-72
2023/06/26 20:26:40;;;;;;;0.73;0.50;;;21.10;95.20;;;;;;4955586;28;20212;-72
2023/06/26 20:29:07;;;;;;;2.40;1.00;;;21.00;95.60;;;;;;4955573;28;20242;-72
2023/06/26 20:31:33;;;;;;;1.00;0.47;;;21.00;95.90;;;;;;4955221;28;20228;-72
2023/06/26 20:34:02;;;;;;;2.47;0.60;;;20.90;96.30;;;;;;4955123;28;20547;-73
2023/06/26 20:36:29;;;;;;;1.88;0.73;;;20.90;96.30;;;;;;4955078;28;20200;-72
2023/06/26 20:38:56;;;;;;;3.40;1.27;;;20.80;96.50;;;;;;4955665;28;20306;-73
2023/06/26 20:41:23;;;;;;;2.60;0.77;;;20.80;96.80;;;;;;4955194;28;20228;-72
2023/06/26 20:43:51;;;;;;;2.47;0.50;;;20.70;96.90;;;;;;4954727;28;20204;-72
2023/06/26 20:46:18;;;;;;;1.75;0.73;;;20.60;96.80;;;;;;4954310;28;20208;-72
2023/06/26 20:48:46;;;;;;;2.00;0.70;;;20.50;96.90;;;;;;4955015;28;20250;-72
2023/06/26 20:51:16;;;;;;;1.73;0.70;;;20.40;97.20;;;;;;4954563;28;20214;-72
2023/06/26 20:53:44;;;;;;;2.85;0.70;;;20.30;97.20;;;;;;4954970;28;20203;-72
2023/06/26 20:56:12;;;;;;;3.55;0.80;;;20.30;97.40;;;;;;4955097;28;20216;-72
2023/06/26 20:58:38;;;;;;;4.10;1.00;;;20.30;97.60;;;;;;4955029;28;20290;-71
2023/06/26 21:01:05;;;;;;;1.27;0.70;;;20.10;97.80;;;;;;4954214;28;20207;-72
2023/06/26 21:03:32;;;;;;;1.55;0.75;;;20.10;97.90;;;;;;4949588;28;20223;-71
